createdAt,value
2022-08-22T00:00:42.887Z,13.50
2022-08-22T00:01:40.838Z,13.50
2022-08-22T00:02:40.841Z,13.47
2022-08-22T00:02:49.119Z,15.51
2022-08-22T00:03:00.571Z,14.97
2022-08-22T00:03:07.174Z,17.31
2022-08-22T00:03:09.501Z,16.87
2022-08-22T00:03:40.813Z,13.49
2022-08-22T00:04:40.802Z,13.47
2022-08-22T00:05:40.786Z,13.47
2022-08-22T00:06:40.774Z,13.49
2022-08-22T00:07:40.761Z,13.49
2022-08-22T00:08:40.747Z,13.52
2022-08-22T00:09:40.738Z,13.52
2022-08-22T00:10:40.725Z,13.52
2022-08-22T00:11:40.710Z,13.50
2022-08-22T00:12:40.696Z,13.50
2022-08-22T00:13:40.687Z,13.49
2022-08-22T00:14:40.676Z,13.46
2022-08-22T00:15:43.014Z,13.42
2022-08-22T00:16:40.649Z,13.44
2022-08-22T00:17:40.634Z,13.42
2022-08-22T00:18:40.618Z,13.42
2022-08-22T00:19:40.612Z,13.44
2022-08-22T00:20:40.597Z,13.42
2022-08-22T00:21:40.580Z,13.44
2022-08-22T00:22:40.567Z,13.42
2022-08-22T00:23:40.557Z,13.44
2022-08-22T00:24:40.543Z,13.46
2022-08-22T00:25:40.531Z,13.44
2022-08-22T00:26:45.064Z,13.46
2022-08-22T00:27:44.963Z,13.46
2022-08-22T00:28:40.492Z,13.44
2022-08-22T00:29:40.483Z,13.46
2022-08-22T00:30:40.467Z,13.44
2022-08-22T00:31:40.457Z,13.44
2022-08-22T00:32:40.441Z,13.46
2022-08-22T00:33:40.432Z,13.41
2022-08-22T00:34:40.416Z,13.38
2022-08-22T00:35:44.888Z,13.38
2022-08-22T00:36:40.390Z,13.35
2022-08-22T00:37:40.378Z,13.31
2022-08-22T00:38:40.365Z,13.31
2022-08-22T00:39:40.392Z,13.31
2022-08-22T00:40:40.339Z,13.30
2022-08-22T00:41:40.323Z,13.30
2022-08-22T00:42:40.318Z,13.31
2022-08-22T00:43:40.309Z,13.33
2022-08-22T00:44:40.288Z,13.31
2022-08-22T00:45:40.271Z,13.33
2022-08-22T00:46:40.265Z,13.31
2022-08-22T00:47:40.250Z,13.35
2022-08-22T00:48:40.242Z,13.37
2022-08-22T00:49:40.221Z,13.33
2022-08-22T00:50:40.212Z,13.37
2022-08-22T00:51:40.201Z,13.31
2022-08-22T00:52:40.192Z,13.31
2022-08-22T00:53:40.169Z,13.30
2022-08-22T00:54:40.159Z,13.30
2022-08-22T00:55:40.150Z,13.27
2022-08-22T00:56:40.134Z,13.28
2022-08-22T00:57:40.123Z,13.28
2022-08-22T00:58:40.106Z,13.27
2022-08-22T00:59:40.096Z,13.27
2022-08-22T01:00:40.085Z,13.25
2022-08-22T01:01:40.114Z,13.27
2022-08-22T01:02:40.059Z,13.28
2022-08-22T01:03:40.045Z,13.28
2022-08-22T01:04:40.030Z,13.31
2022-08-22T01:05:40.020Z,13.31
2022-08-22T01:06:40.007Z,13.30
2022-08-22T01:07:39.994Z,13.31
2022-08-22T01:08:39.979Z,13.28
2022-08-22T01:09:39.966Z,13.25
2022-08-22T01:10:39.956Z,13.27
2022-08-22T01:11:39.944Z,13.25
2022-08-22T01:12:39.928Z,13.22
2022-08-22T01:13:39.916Z,13.23
2022-08-22T01:14:39.902Z,13.22
2022-08-22T01:15:39.890Z,13.22
2022-08-22T01:16:39.876Z,13.23
2022-08-22T01:17:39.864Z,13.22
2022-08-22T01:18:39.861Z,13.25
2022-08-22T01:19:39.837Z,13.23
2022-08-22T01:20:39.827Z,13.23
2022-08-22T01:21:39.816Z,13.20
2022-08-22T01:22:39.803Z,13.20
2022-08-22T01:23:40.622Z,13.19
2022-08-22T01:24:39.789Z,13.19
2022-08-22T01:25:39.769Z,13.18
2022-08-22T01:26:40.509Z,13.18
2022-08-22T01:27:39.744Z,13.18
2022-08-22T01:28:39.726Z,13.15
2022-08-22T01:29:39.711Z,13.12
2022-08-22T01:30:39.701Z,13.12
2022-08-22T01:31:39.685Z,13.11
2022-08-22T01:32:39.669Z,13.11
2022-08-22T01:33:39.665Z,13.11
2022-08-22T01:34:39.645Z,13.09
2022-08-22T01:35:39.634Z,13.11
2022-08-22T01:36:39.618Z,13.08
2022-08-22T01:37:43.627Z,13.04
2022-08-22T01:38:39.595Z,13.03
2022-08-22T01:39:39.635Z,13.01
2022-08-22T01:40:53.500Z,13.01
2022-08-22T01:41:40.591Z,12.98
2022-08-22T01:42:39.543Z,13.00
2022-08-22T01:44:00.078Z,12.97
2022-08-22T01:44:39.517Z,12.97
2022-08-22T01:45:39.507Z,12.97
2022-08-22T01:46:39.493Z,13.00
2022-08-22T01:47:39.485Z,12.97
2022-08-22T01:48:39.469Z,12.95
2022-08-22T01:49:39.453Z,12.95
2022-08-22T01:50:39.441Z,12.91
2022-08-22T01:51:39.428Z,12.95
2022-08-22T01:52:39.415Z,12.94
2022-08-22T01:53:39.403Z,12.93
2022-08-22T01:54:39.391Z,12.95
2022-08-22T01:55:39.377Z,12.97
2022-08-22T01:56:39.365Z,12.98
2022-08-22T01:57:39.349Z,12.98
2022-08-22T01:58:39.336Z,12.95
2022-08-22T01:59:42.541Z,12.93
2022-08-22T02:00:39.322Z,12.95
2022-08-22T02:01:39.298Z,12.94
2022-08-22T02:02:39.288Z,12.90
2022-08-22T02:03:39.275Z,12.86
2022-08-22T02:04:39.262Z,12.83
2022-08-22T02:05:39.246Z,12.80
2022-08-22T02:06:39.237Z,12.83
2022-08-22T02:07:39.229Z,12.85
2022-08-22T02:08:39.214Z,12.86
2022-08-22T02:09:39.198Z,12.86
2022-08-22T02:10:39.186Z,12.85
2022-08-22T02:11:39.175Z,12.86
2022-08-22T02:12:39.159Z,12.91
2022-08-22T02:13:39.146Z,12.90
2022-08-22T02:14:39.133Z,12.90
2022-08-22T02:15:39.121Z,12.86
2022-08-22T02:16:39.107Z,12.86
2022-08-22T02:17:39.095Z,12.85
2022-08-22T02:18:39.086Z,12.85
2022-08-22T02:19:39.069Z,12.83
2022-08-22T02:20:39.057Z,12.82
2022-08-22T02:21:39.045Z,12.80
2022-08-22T02:22:44.315Z,12.79
2022-08-22T02:23:39.022Z,12.78
2022-08-22T02:24:39.009Z,12.76
2022-08-22T02:25:38.993Z,12.79
2022-08-22T02:26:38.989Z,12.76
2022-08-22T02:27:38.967Z,12.76
2022-08-22T02:28:38.952Z,12.76
2022-08-22T02:29:39.972Z,12.76
2022-08-22T02:30:38.931Z,12.79
2022-08-22T02:31:38.915Z,12.79
2022-08-22T02:32:38.906Z,12.82
2022-08-22T02:33:38.890Z,12.83
2022-08-22T02:34:38.876Z,12.83
2022-08-22T02:35:38.863Z,12.85
2022-08-22T02:36:38.860Z,12.83
2022-08-22T02:37:38.839Z,12.83
2022-08-22T02:38:38.825Z,12.82
2022-08-22T02:39:38.861Z,12.82
2022-08-22T02:40:38.803Z,12.82
2022-08-22T02:41:38.787Z,12.80
2022-08-22T02:42:40.061Z,12.79
2022-08-22T02:43:38.760Z,12.76
2022-08-22T02:44:38.751Z,12.75
2022-08-22T02:45:38.746Z,12.73
2022-08-22T02:46:38.722Z,12.70
2022-08-22T02:47:38.713Z,12.72
2022-08-22T02:48:38.697Z,12.68
2022-08-22T02:49:44.013Z,12.70
2022-08-22T02:50:38.676Z,12.72
2022-08-22T02:51:38.659Z,12.73
2022-08-22T02:52:38.672Z,12.76
2022-08-22T02:53:38.639Z,12.78
2022-08-22T02:54:38.624Z,12.78
2022-08-22T02:55:38.612Z,12.78
2022-08-22T02:56:38.599Z,12.78
2022-08-22T02:57:39.592Z,12.78
2022-08-22T02:58:38.572Z,12.76
2022-08-22T02:59:38.562Z,12.73
2022-08-22T03:00:38.615Z,12.72
2022-08-22T03:01:38.534Z,12.73
2022-08-22T03:02:38.515Z,12.72
2022-08-22T03:03:38.524Z,12.68
2022-08-22T03:04:38.503Z,12.70
2022-08-22T03:05:38.479Z,12.68
2022-08-22T03:06:38.468Z,12.70
2022-08-22T03:07:38.451Z,12.70
2022-08-22T03:08:38.438Z,12.67
2022-08-22T03:09:38.431Z,12.64
2022-08-22T03:10:38.415Z,12.64
2022-08-22T03:11:38.400Z,12.64
2022-08-22T03:12:38.386Z,12.61
2022-08-22T03:13:38.373Z,12.61
2022-08-22T03:14:38.361Z,12.60
2022-08-22T03:15:38.351Z,12.64
2022-08-22T03:16:38.334Z,12.62
2022-08-22T03:17:38.324Z,12.61
2022-08-22T03:18:38.308Z,12.61
2022-08-22T03:19:38.299Z,12.58
2022-08-22T03:20:38.287Z,12.54
2022-08-22T03:21:38.268Z,12.53
2022-08-22T03:22:38.258Z,12.50
2022-08-22T03:23:38.242Z,12.47
2022-08-22T03:24:38.232Z,12.46
2022-08-22T03:25:38.217Z,12.45
2022-08-22T03:26:38.203Z,12.42
2022-08-22T03:27:38.191Z,12.42
2022-08-22T03:28:38.179Z,12.40
2022-08-22T03:29:39.195Z,12.40
2022-08-22T03:30:38.150Z,12.43
2022-08-22T03:31:38.138Z,12.42
2022-08-22T03:32:38.125Z,12.42
2022-08-22T03:33:38.112Z,12.40
2022-08-22T03:34:38.099Z,12.42
2022-08-22T03:35:38.091Z,12.45
2022-08-22T03:36:38.073Z,12.45
2022-08-22T03:37:38.064Z,12.49
2022-08-22T03:38:38.048Z,12.49
2022-08-22T03:39:38.099Z,12.47
2022-08-22T03:40:38.021Z,12.45
2022-08-22T03:41:38.016Z,12.45
2022-08-22T03:42:37.997Z,12.45
2022-08-22T03:43:37.984Z,12.45
2022-08-22T03:44:37.971Z,12.46
2022-08-22T03:45:37.960Z,12.45
2022-08-22T03:46:37.950Z,12.45
2022-08-22T03:47:37.934Z,12.43
2022-08-22T03:48:37.917Z,12.39
2022-08-22T03:49:37.907Z,12.37
2022-08-22T03:50:37.901Z,12.36
2022-08-22T03:51:37.879Z,12.32
2022-08-22T03:52:37.867Z,12.31
2022-08-22T03:53:37.854Z,12.31
2022-08-22T03:54:37.841Z,12.31
2022-08-22T03:55:37.827Z,12.32
2022-08-22T03:56:37.817Z,12.31
2022-08-22T03:57:37.802Z,12.29
2022-08-22T03:58:37.794Z,12.29
2022-08-22T03:59:42.801Z,12.29
2022-08-22T04:00:37.820Z,12.27
2022-08-22T04:01:37.748Z,12.24
2022-08-22T04:02:43.868Z,12.21
2022-08-22T04:03:38.751Z,12.22
2022-08-22T04:04:37.710Z,12.22
2022-08-22T04:05:37.696Z,12.20
2022-08-22T04:06:37.683Z,12.15
2022-08-22T04:07:37.668Z,12.15
2022-08-22T04:08:37.658Z,12.12
2022-08-22T04:09:38.674Z,12.10
2022-08-22T04:10:37.629Z,12.09
2022-08-22T04:11:37.618Z,12.07
2022-08-22T04:12:37.610Z,12.07
2022-08-22T04:13:37.594Z,12.06
2022-08-22T04:14:37.579Z,12.03
2022-08-22T04:15:37.564Z,12.04
2022-08-22T04:16:37.550Z,12.06
2022-08-22T04:17:37.548Z,12.03
2022-08-22T04:18:37.526Z,12.07
2022-08-22T04:19:37.514Z,12.06
2022-08-22T04:20:37.500Z,12.03
2022-08-22T04:21:37.489Z,12.03
2022-08-22T04:22:37.477Z,12.03
2022-08-22T04:23:37.458Z,12.00
2022-08-22T04:24:37.444Z,12.02
2022-08-22T04:25:37.433Z,11.99
2022-08-22T04:26:37.419Z,11.99
2022-08-22T04:27:37.406Z,11.99
2022-08-22T04:28:37.390Z,11.97
2022-08-22T04:29:37.380Z,11.99
2022-08-22T04:30:37.365Z,11.99
2022-08-22T04:31:37.353Z,11.99
2022-08-22T04:32:37.340Z,12.02
2022-08-22T04:33:37.328Z,12.03
2022-08-22T04:34:37.322Z,12.04
2022-08-22T04:35:37.306Z,12.06
2022-08-22T04:36:37.289Z,12.02
2022-08-22T04:37:37.273Z,11.99
2022-08-22T04:38:37.264Z,12.02
2022-08-22T04:39:37.281Z,11.99
2022-08-22T04:40:37.235Z,12.00
2022-08-22T04:41:37.222Z,12.00
2022-08-22T04:42:37.212Z,12.00
2022-08-22T04:43:37.198Z,12.00
2022-08-22T04:44:37.186Z,11.99
2022-08-22T04:45:37.171Z,11.97
2022-08-22T04:46:37.361Z,11.95
2022-08-22T04:47:37.146Z,11.97
2022-08-22T04:48:37.130Z,12.00
2022-08-22T04:49:37.117Z,12.02
2022-08-22T04:50:41.191Z,12.03
2022-08-22T04:51:37.092Z,12.03
2022-08-22T04:52:37.079Z,12.02
2022-08-22T04:53:37.066Z,12.02
2022-08-22T04:54:37.055Z,12.03
2022-08-22T04:55:37.039Z,12.02
2022-08-22T04:56:37.028Z,12.04
2022-08-22T04:57:37.012Z,12.04
2022-08-22T04:58:37.005Z,12.06
2022-08-22T04:59:36.989Z,12.07
2022-08-22T05:00:36.979Z,12.06
2022-08-22T05:01:36.995Z,12.06
2022-08-22T05:02:36.946Z,12.04
2022-08-22T05:03:36.934Z,12.06
2022-08-22T05:04:36.920Z,12.06
2022-08-22T05:05:36.911Z,12.09
2022-08-22T05:06:36.904Z,12.13
2022-08-22T05:07:36.883Z,12.10
2022-08-22T05:08:36.869Z,12.13
2022-08-22T05:09:36.856Z,12.17
2022-08-22T05:10:36.844Z,12.18
2022-08-22T05:11:36.827Z,12.18
2022-08-22T05:12:36.814Z,12.20
2022-08-22T05:13:36.805Z,12.20
2022-08-22T05:14:36.792Z,12.21
2022-08-22T05:15:36.777Z,12.22
2022-08-22T05:16:36.770Z,12.27
2022-08-22T05:17:36.751Z,12.32
2022-08-22T05:18:36.738Z,12.37
2022-08-22T05:19:36.716Z,12.43
2022-08-22T05:20:36.711Z,12.54
2022-08-22T05:21:36.697Z,12.64
2022-08-22T05:22:36.687Z,12.72
2022-08-22T05:23:36.671Z,12.76
2022-08-22T05:24:36.656Z,12.83
2022-08-22T05:25:36.645Z,12.95
2022-08-22T05:26:36.626Z,13.09
2022-08-22T05:27:36.615Z,13.23
2022-08-22T05:28:36.607Z,13.41
2022-08-22T05:29:36.590Z,13.62
2022-08-22T05:30:36.583Z,13.87
2022-08-22T05:31:36.569Z,14.10
2022-08-22T05:32:36.550Z,14.28
2022-08-22T05:33:36.542Z,14.54
2022-08-22T05:34:36.526Z,14.78
2022-08-22T05:35:36.513Z,15.15
2022-08-22T05:36:36.497Z,15.55
2022-08-22T05:37:36.493Z,15.84
2022-08-22T05:38:36.477Z,16.31
2022-08-22T05:39:36.461Z,16.75
2022-08-22T05:40:36.447Z,17.24
2022-08-22T05:41:36.435Z,17.80
2022-08-22T05:42:36.422Z,18.31
2022-08-22T05:43:36.411Z,18.74
2022-08-22T05:44:36.394Z,19.11
2022-08-22T05:45:36.382Z,19.39
2022-08-22T05:46:36.367Z,19.62
2022-08-22T05:47:36.352Z,19.88
2022-08-22T05:48:36.341Z,19.94
2022-08-22T05:49:36.337Z,20.06
2022-08-22T05:50:36.320Z,20.37
2022-08-22T05:51:36.301Z,20.82
2022-08-22T05:52:36.289Z,21.12
2022-08-22T05:53:36.277Z,21.22
2022-08-22T05:54:36.265Z,21.46
2022-08-22T05:55:36.252Z,21.42
2022-08-22T05:56:36.247Z,21.05
2022-08-22T05:57:36.232Z,20.60
2022-08-22T05:58:36.223Z,19.84
2022-08-22T05:59:36.209Z,19.22
2022-08-22T06:00:36.190Z,18.84
2022-08-22T06:01:36.220Z,18.33
2022-08-22T06:02:36.157Z,17.85
2022-08-22T06:03:36.143Z,17.64
2022-08-22T06:04:36.134Z,17.49
2022-08-22T06:05:36.117Z,17.56
2022-08-22T06:06:36.105Z,17.90
2022-08-22T06:07:36.093Z,18.56
2022-08-22T06:08:36.073Z,19.49
2022-08-22T06:09:36.065Z,20.44
2022-08-22T06:10:36.052Z,21.45
2022-08-22T06:11:36.029Z,22.32
2022-08-22T06:12:36.031Z,23.05
2022-08-22T06:13:36.013Z,23.69
2022-08-22T06:14:35.999Z,24.33
2022-08-22T06:15:36.172Z,24.48
2022-08-22T06:16:35.978Z,24.42
2022-08-22T06:17:35.959Z,24.30
2022-08-22T06:18:35.945Z,24.08
2022-08-22T06:19:35.932Z,24.06
2022-08-22T06:20:35.922Z,24.28
2022-08-22T06:21:38.568Z,24.63
2022-08-22T06:22:35.894Z,24.47
2022-08-22T06:23:35.881Z,24.39
2022-08-22T06:24:35.868Z,24.66
2022-08-22T06:25:35.856Z,24.78
2022-08-22T06:26:35.842Z,25.33
2022-08-22T06:27:35.830Z,25.88
2022-08-22T06:28:35.817Z,26.36
2022-08-22T06:29:35.805Z,26.59
2022-08-22T06:30:35.788Z,26.81
2022-08-22T06:31:35.774Z,27.10
2022-08-22T06:32:59.874Z,27.30
2022-08-22T06:33:36.771Z,27.68
2022-08-22T06:34:35.737Z,27.60
2022-08-22T06:35:35.726Z,27.92
2022-08-22T06:36:35.710Z,28.12
2022-08-22T06:37:35.693Z,28.26
2022-08-22T06:38:35.684Z,28.25
2022-08-22T06:39:35.667Z,28.45
2022-08-22T06:40:35.655Z,28.33
2022-08-22T06:41:35.642Z,27.93
2022-08-22T06:42:35.629Z,28.08
2022-08-22T06:43:35.617Z,28.05
2022-08-22T06:44:35.601Z,27.82
2022-08-22T06:45:35.593Z,27.67
2022-08-22T06:46:35.581Z,28.07
2022-08-22T06:47:35.565Z,27.78
2022-08-22T06:48:35.549Z,27.36
2022-08-22T06:49:35.532Z,27.20
2022-08-22T06:50:35.527Z,27.26
2022-08-22T06:51:35.505Z,27.30
2022-08-22T06:52:35.498Z,27.89
2022-08-22T06:53:35.483Z,28.45
2022-08-22T06:54:35.473Z,28.88
2022-08-22T06:55:35.461Z,29.41
2022-08-22T06:56:35.449Z,29.23
2022-08-22T06:57:35.431Z,29.42
2022-08-22T06:58:35.419Z,29.69
2022-08-22T06:59:35.421Z,30.08
2022-08-22T07:00:35.389Z,30.46
2022-08-22T07:01:35.458Z,30.69
2022-08-22T07:02:35.369Z,30.73
2022-08-22T07:03:35.348Z,30.80
2022-08-22T07:04:35.348Z,30.80
2022-08-22T07:05:35.327Z,30.85
2022-08-22T07:06:35.319Z,31.05
2022-08-22T07:07:35.304Z,31.21
2022-08-22T07:08:38.984Z,31.27
2022-08-22T07:09:35.282Z,31.09
2022-08-22T07:10:35.269Z,31.12
2022-08-22T07:11:35.247Z,31.25
2022-08-22T07:12:35.246Z,31.42
2022-08-22T07:13:35.232Z,31.42
2022-08-22T07:14:35.215Z,31.55
2022-08-22T07:15:35.196Z,31.71
2022-08-22T07:16:35.186Z,31.92
2022-08-22T07:17:40.061Z,32.09
2022-08-22T07:18:35.161Z,32.12
2022-08-22T07:19:35.146Z,31.81
2022-08-22T07:20:35.131Z,31.12
2022-08-22T07:21:36.235Z,29.57
2022-08-22T07:22:35.109Z,28.44
2022-08-22T07:23:35.087Z,28.52
2022-08-22T07:24:35.086Z,29.24
2022-08-22T07:25:35.071Z,29.94
2022-08-22T07:26:35.059Z,30.57
2022-08-22T07:27:35.051Z,31.07
2022-08-22T07:28:37.269Z,31.54
2022-08-22T07:29:36.055Z,31.80
2022-08-22T07:30:35.011Z,32.01
2022-08-22T07:31:34.999Z,32.19
2022-08-22T07:32:34.978Z,32.36
2022-08-22T07:33:34.967Z,32.55
2022-08-22T07:34:34.961Z,32.75
2022-08-22T07:35:34.941Z,33.00
2022-08-22T07:36:34.930Z,33.17
2022-08-22T07:37:34.916Z,33.32
2022-08-22T07:38:34.900Z,33.46
2022-08-22T07:39:34.891Z,33.52
2022-08-22T07:40:34.876Z,33.59
2022-08-22T07:41:34.859Z,33.45
2022-08-22T07:42:34.851Z,33.49
2022-08-22T07:43:34.839Z,33.57
2022-08-22T07:44:34.825Z,33.67
2022-08-22T07:45:34.813Z,33.69
2022-08-22T07:46:34.803Z,33.55
2022-08-22T07:47:34.793Z,33.14
2022-08-22T07:48:38.285Z,32.60
2022-08-22T07:49:35.792Z,31.90
2022-08-22T07:50:34.748Z,31.06
2022-08-22T07:51:34.735Z,30.23
2022-08-22T07:52:34.726Z,29.42
2022-08-22T07:53:34.710Z,28.66
2022-08-22T07:54:34.707Z,27.93
2022-08-22T07:55:34.688Z,27.20
2022-08-22T07:56:35.703Z,26.56
2022-08-22T07:57:34.658Z,26.06
2022-08-22T07:58:34.653Z,25.59
2022-08-22T07:59:34.633Z,25.18
2022-08-22T08:00:34.630Z,24.77
2022-08-22T08:01:34.669Z,24.36
2022-08-22T08:02:34.593Z,24.05
2022-08-22T08:03:34.584Z,23.76
2022-08-22T08:04:39.511Z,23.48
2022-08-22T08:05:34.556Z,23.21
2022-08-22T08:06:34.544Z,23.03
2022-08-22T08:07:34.532Z,22.75
2022-08-22T08:08:34.527Z,22.59
2022-08-22T08:09:34.509Z,22.50
2022-08-22T08:10:34.495Z,22.43
2022-08-22T08:11:34.483Z,22.45
2022-08-22T08:12:34.473Z,22.45
2022-08-22T08:13:34.457Z,22.43
2022-08-22T08:14:34.441Z,22.32
2022-08-22T08:15:34.434Z,22.22
2022-08-22T08:16:34.430Z,22.08
2022-08-22T08:17:34.410Z,21.96
2022-08-22T08:18:34.398Z,21.91
2022-08-22T08:19:34.386Z,21.83
2022-08-22T08:20:34.371Z,21.76
2022-08-22T08:21:34.357Z,21.75
2022-08-22T08:22:34.347Z,21.77
2022-08-22T08:23:37.908Z,21.79
2022-08-22T08:24:42.326Z,21.76
2022-08-22T08:25:35.354Z,21.76
2022-08-22T08:26:34.307Z,21.80
2022-08-22T08:27:34.289Z,21.83
2022-08-22T08:28:34.280Z,21.82
2022-08-22T08:29:34.264Z,21.89
2022-08-22T08:30:34.257Z,21.98
2022-08-22T08:31:34.238Z,22.06
2022-08-22T08:32:34.223Z,22.08
2022-08-22T08:33:34.214Z,21.96
2022-08-22T08:34:34.465Z,21.95
2022-08-22T08:35:35.363Z,21.99
2022-08-22T08:36:35.212Z,22.13
2022-08-22T08:37:34.172Z,22.32
2022-08-22T08:38:34.159Z,22.45
2022-08-22T08:39:35.158Z,22.55
2022-08-22T08:40:34.125Z,22.63
2022-08-22T08:41:34.113Z,22.73
2022-08-22T08:42:34.106Z,22.83
2022-08-22T08:43:34.094Z,22.84
2022-08-22T08:44:34.081Z,22.81
2022-08-22T08:45:34.071Z,22.75
2022-08-22T08:46:34.055Z,22.69
2022-08-22T08:47:34.043Z,22.63
2022-08-22T08:48:34.029Z,22.66
2022-08-22T08:49:34.047Z,22.63
2022-08-22T08:50:34.007Z,22.51
2022-08-22T08:51:33.994Z,22.41
2022-08-22T08:52:33.981Z,22.29
2022-08-22T08:53:33.983Z,22.23
2022-08-22T08:54:33.956Z,22.18
2022-08-22T08:55:33.945Z,22.23
2022-08-22T08:56:33.934Z,22.29
2022-08-22T08:57:33.921Z,22.33
2022-08-22T08:58:33.912Z,22.45
2022-08-22T08:59:33.902Z,22.54
2022-08-22T09:00:33.886Z,22.59
2022-08-22T09:01:33.960Z,22.63
2022-08-22T09:02:35.038Z,22.68
2022-08-22T09:03:33.848Z,22.66
2022-08-22T09:04:33.945Z,22.70
2022-08-22T09:05:33.811Z,22.75
2022-08-22T09:06:33.808Z,22.81
2022-08-22T09:07:33.795Z,22.83
2022-08-22T09:08:33.787Z,22.84
2022-08-22T09:09:33.773Z,22.83
2022-08-22T09:10:33.759Z,22.84
2022-08-22T09:11:33.748Z,22.73
2022-08-22T09:12:33.733Z,22.69
2022-08-22T09:13:34.585Z,22.62
2022-08-22T09:14:34.748Z,22.55
2022-08-22T09:15:37.284Z,22.50
2022-08-22T09:16:33.687Z,22.48
2022-08-22T09:17:33.672Z,22.50
2022-08-22T09:18:33.658Z,22.53
2022-08-22T09:19:33.648Z,22.55
2022-08-22T09:20:33.634Z,22.54
2022-08-22T09:21:33.619Z,22.54
2022-08-22T09:22:50.181Z,22.66
2022-08-22T09:23:34.632Z,22.76
2022-08-22T09:24:33.584Z,22.84
2022-08-22T09:25:38.514Z,22.83
2022-08-22T09:26:34.590Z,22.83
2022-08-22T09:27:33.556Z,22.78
2022-08-22T09:28:33.532Z,22.84
2022-08-22T09:29:33.525Z,22.83
2022-08-22T09:30:33.512Z,22.91
2022-08-22T09:31:48.166Z,22.87
2022-08-22T09:32:33.490Z,22.91
2022-08-22T09:33:33.476Z,22.93
2022-08-22T09:34:33.464Z,22.99
2022-08-22T09:35:33.461Z,23.05
2022-08-22T09:36:33.436Z,23.09
2022-08-22T09:37:33.426Z,23.17
2022-08-22T09:38:33.415Z,23.15
2022-08-22T09:39:33.400Z,23.02
2022-08-22T09:40:33.393Z,23.02
2022-08-22T09:41:33.378Z,23.08
2022-08-22T09:42:33.363Z,23.05
2022-08-22T09:43:33.801Z,23.03
2022-08-22T09:44:33.343Z,23.02
2022-08-22T09:45:33.330Z,23.02
2022-08-22T09:46:36.687Z,23.06
2022-08-22T09:47:33.305Z,23.09
2022-08-22T09:48:33.292Z,23.13
2022-08-22T09:49:33.278Z,23.08
2022-08-22T09:50:33.267Z,23.00
2022-08-22T09:51:33.526Z,22.85
2022-08-22T09:52:35.907Z,22.80
2022-08-22T09:53:33.230Z,22.75
2022-08-22T09:54:33.217Z,22.73
2022-08-22T09:55:34.918Z,22.78
2022-08-22T09:56:33.191Z,22.78
2022-08-22T09:57:33.181Z,22.78
2022-08-22T09:58:35.691Z,22.75
2022-08-22T09:59:33.633Z,22.72
2022-08-22T10:00:33.143Z,22.65
2022-08-22T10:01:33.350Z,22.62
2022-08-22T10:02:33.118Z,22.59
2022-08-22T10:03:33.104Z,22.59
2022-08-22T10:04:33.092Z,22.57
2022-08-22T10:05:41.004Z,22.53
2022-08-22T10:06:34.101Z,22.60
2022-08-22T10:07:33.056Z,22.60
2022-08-22T10:08:33.050Z,22.57
2022-08-22T10:09:33.033Z,22.55
2022-08-22T10:10:33.018Z,22.51
2022-08-22T10:11:33.006Z,22.51
2022-08-22T10:12:36.177Z,22.48
2022-08-22T10:13:32.983Z,22.45
2022-08-22T10:14:32.967Z,22.43
2022-08-22T10:15:32.957Z,22.41
2022-08-22T10:16:32.945Z,22.41
2022-08-22T10:17:32.933Z,22.43
2022-08-22T10:18:32.919Z,22.43
2022-08-22T10:19:32.910Z,22.45
2022-08-22T10:20:32.897Z,22.48
2022-08-22T10:21:32.885Z,22.47
2022-08-22T10:22:32.891Z,22.44
2022-08-22T10:23:32.862Z,22.45
2022-08-22T10:24:32.870Z,22.44
2022-08-22T10:25:32.832Z,22.45
2022-08-22T10:26:37.874Z,22.48
2022-08-22T10:27:32.808Z,22.41
2022-08-22T10:28:32.796Z,22.38
2022-08-22T10:29:32.788Z,22.36
2022-08-22T10:30:32.778Z,22.29
2022-08-22T10:31:32.760Z,22.26
2022-08-22T10:32:32.754Z,22.23
2022-08-22T10:33:32.738Z,22.29
2022-08-22T10:34:32.725Z,22.29
2022-08-22T10:35:33.735Z,22.32
2022-08-22T10:36:32.697Z,22.39
2022-08-22T10:37:32.689Z,22.44
2022-08-22T10:38:32.676Z,22.51
2022-08-22T10:39:32.665Z,22.55
2022-08-22T10:40:32.654Z,22.59
2022-08-22T10:41:32.645Z,22.59
2022-08-22T10:42:35.317Z,22.62
2022-08-22T10:43:32.621Z,22.66
2022-08-22T10:44:32.607Z,22.69
2022-08-22T10:45:36.590Z,22.66
2022-08-22T10:46:32.586Z,22.63
2022-08-22T10:47:32.567Z,22.60
2022-08-22T10:48:32.557Z,22.59
2022-08-22T10:49:32.541Z,22.54
2022-08-22T10:50:32.527Z,22.48
2022-08-22T10:51:32.514Z,22.45
2022-08-22T10:52:32.504Z,22.45
2022-08-22T10:53:32.489Z,22.50
2022-08-22T10:54:32.483Z,22.55
2022-08-22T10:55:32.474Z,22.60
2022-08-22T10:56:32.479Z,22.63
2022-08-22T10:57:32.441Z,22.69
2022-08-22T10:58:32.443Z,22.75
2022-08-22T10:59:32.423Z,22.75
2022-08-22T11:00:32.462Z,22.78
2022-08-22T11:01:37.630Z,22.75
2022-08-22T11:02:33.421Z,22.76
2022-08-22T11:03:32.366Z,22.78
2022-08-22T11:04:32.355Z,22.76
2022-08-22T11:05:32.340Z,22.78
2022-08-22T11:06:32.329Z,22.80
2022-08-22T11:07:32.312Z,22.85
2022-08-22T11:08:33.101Z,22.88
2022-08-22T11:09:36.874Z,22.96
2022-08-22T11:10:32.289Z,23.05
2022-08-22T11:11:32.662Z,23.09
2022-08-22T11:12:35.025Z,23.10
2022-08-22T11:13:32.245Z,23.08
2022-08-22T11:14:32.243Z,23.05
2022-08-22T11:15:35.113Z,23.05
2022-08-22T11:16:32.204Z,23.03
2022-08-22T11:17:34.603Z,23.05
2022-08-22T11:18:33.210Z,23.02
2022-08-22T11:19:32.166Z,23.06
2022-08-22T11:20:32.150Z,23.08
2022-08-22T11:21:32.143Z,23.06
2022-08-22T11:22:32.133Z,23.06
2022-08-22T11:23:32.119Z,23.06
2022-08-22T11:24:35.689Z,23.06
2022-08-22T11:25:36.056Z,23.09
2022-08-22T11:26:38.355Z,23.17
2022-08-22T11:27:38.034Z,23.23
2022-08-22T11:28:33.078Z,23.27
2022-08-22T11:29:32.038Z,23.34
2022-08-22T11:30:32.027Z,23.44
2022-08-22T11:31:36.500Z,23.50
2022-08-22T11:32:32.007Z,23.54
2022-08-22T11:33:47.341Z,23.55
2022-08-22T11:34:33.013Z,23.56
2022-08-22T11:35:31.977Z,23.54
2022-08-22T11:36:31.947Z,23.56
2022-08-22T11:37:43.323Z,23.54
2022-08-22T11:38:33.065Z,23.50
2022-08-22T11:39:31.916Z,23.43
2022-08-22T11:40:32.055Z,23.39
2022-08-22T11:41:31.887Z,23.32
2022-08-22T11:42:31.879Z,23.28
2022-08-22T11:43:32.481Z,23.25
2022-08-22T11:44:32.088Z,23.20
2022-08-22T11:45:31.839Z,23.15
2022-08-22T11:46:31.832Z,23.08
2022-08-22T11:47:31.813Z,23.00
2022-08-22T11:48:31.800Z,22.98
2022-08-22T11:49:31.837Z,22.96
2022-08-22T11:50:31.778Z,22.94
2022-08-22T11:51:34.197Z,22.93
2022-08-22T11:52:31.755Z,22.91
2022-08-22T11:53:31.798Z,22.90
2022-08-22T11:54:31.722Z,22.91
2022-08-22T11:55:33.162Z,22.87
2022-08-22T11:56:31.701Z,22.87
2022-08-22T11:57:31.729Z,22.84
2022-08-22T11:58:31.677Z,22.83
2022-08-22T11:59:31.665Z,22.80
2022-08-22T12:00:31.647Z,22.81
2022-08-22T12:01:34.186Z,22.78
2022-08-22T12:02:31.673Z,22.83
2022-08-22T12:03:31.666Z,22.81
2022-08-22T12:04:31.597Z,22.83
2022-08-22T12:05:31.583Z,22.84
2022-08-22T12:06:31.581Z,22.88
2022-08-22T12:07:31.561Z,22.99
2022-08-22T12:08:31.547Z,23.09
2022-08-22T12:09:31.533Z,23.23
2022-08-22T12:10:31.520Z,23.31
2022-08-22T12:11:31.514Z,23.36
2022-08-22T12:12:31.496Z,23.41
2022-08-22T12:13:34.746Z,23.44
2022-08-22T12:14:31.470Z,23.48
2022-08-22T12:15:33.437Z,23.55
2022-08-22T12:16:31.450Z,23.54
2022-08-22T12:17:55.828Z,23.51
2022-08-22T12:18:32.451Z,23.46
2022-08-22T12:19:32.964Z,23.39
2022-08-22T12:20:31.392Z,23.27
2022-08-22T12:21:31.384Z,23.25
2022-08-22T12:22:31.366Z,23.20
2022-08-22T12:23:48.681Z,23.18
2022-08-22T12:24:32.380Z,23.13
2022-08-22T12:25:31.334Z,23.20
2022-08-22T12:26:31.319Z,23.27
2022-08-22T12:27:31.306Z,23.36
2022-08-22T12:28:31.293Z,23.48
2022-08-22T12:29:34.161Z,23.58
2022-08-22T12:30:32.306Z,23.62
2022-08-22T12:31:31.258Z,23.65
2022-08-22T12:32:31.252Z,23.66
2022-08-22T12:33:31.239Z,23.71
2022-08-22T12:34:31.226Z,23.80
2022-08-22T12:35:31.211Z,23.86
2022-08-22T12:36:31.199Z,23.87
2022-08-22T12:37:31.185Z,23.87
2022-08-22T12:38:33.716Z,23.88
2022-08-22T12:39:32.187Z,23.86
2022-08-22T12:40:31.271Z,23.83
2022-08-22T12:41:35.204Z,23.86
2022-08-22T12:42:31.137Z,23.86
2022-08-22T12:43:32.376Z,23.78
2022-08-22T12:44:31.101Z,23.84
2022-08-22T12:45:31.090Z,23.86
2022-08-22T12:46:31.076Z,23.83
2022-08-22T12:47:31.979Z,23.77
2022-08-22T12:48:31.048Z,23.71